Terminal Aerodrome Forecast
Issued by NWS St Louis, MO

Home | Current Version | Previous Version | Text Only | Print | Product List | Glossary On
Versions: 1 2 3 4 5 6 7 8 9 10 11 12 13 14 15 16 17 18 19
000
FTUS43 KLSX 011933 AAA
TAFCOU
TAF AMD
KCOU 011933Z 0120/0218 21007KT P6SM VCTS SCT045CB
     FM020000 VRB04KT P6SM SCT250
     FM021600 24012G18KT P6SM SCT050=

USA.gov is the U.S. government's official web portal to all federal, state and local government web resources and services.